sensor_id;sensor_type;location;lat;lon;timestamp;temperature;humidity
26909;DHT22;14477;51.038;4.588;2022-08-07T00:01:27;18.50;55.50
26909;DHT22;14477;51.038;4.588;2022-08-07T00:03:52;18.50;55.60
26909;DHT22;14477;51.038;4.588;2022-08-07T00:06:18;18.40;55.60
26909;DHT22;14477;51.038;4.588;2022-08-07T00:08:44;18.40;55.80
26909;DHT22;14477;51.038;4.588;2022-08-07T00:11:10;18.40;55.90
26909;DHT22;14477;51.038;4.588;2022-08-07T00:13:36;18.30;56.00
26909;DHT22;14477;51.038;4.588;2022-08-07T00:16:03;18.30;56.30
26909;DHT22;14477;51.038;4.588;2022-08-07T00:18:30;18.20;56.30
26909;DHT22;14477;51.038;4.588;2022-08-07T00:20:58;18.20;56.40
26909;DHT22;14477;51.038;4.588;2022-08-07T00:23:25;18.20;56.60
26909;DHT22;14477;51.038;4.588;2022-08-07T00:25:51;18.10;56.60
26909;DHT22;14477;51.038;4.588;2022-08-07T00:28:18;18.10;56.80
26909;DHT22;14477;51.038;4.588;2022-08-07T00:30:44;18.00;56.90
26909;DHT22;14477;51.038;4.588;2022-08-07T00:33:10;18.00;56.90
26909;DHT22;14477;51.038;4.588;2022-08-07T00:35:36;17.90;57.00
26909;DHT22;14477;51.038;4.588;2022-08-07T00:38:03;17.90;57.20
26909;DHT22;14477;51.038;4.588;2022-08-07T00:40:29;17.90;57.30
26909;DHT22;14477;51.038;4.588;2022-08-07T00:42:55;17.80;57.30
26909;DHT22;14477;51.038;4.588;2022-08-07T00:45:21;17.80;57.40
26909;DHT22;14477;51.038;4.588;2022-08-07T00:47:48;17.70;57.40
26909;DHT22;14477;51.038;4.588;2022-08-07T00:50:14;17.60;57.70
26909;DHT22;14477;51.038;4.588;2022-08-07T00:52:40;17.60;57.90
26909;DHT22;14477;51.038;4.588;2022-08-07T00:55:06;17.50;58.70
26909;DHT22;14477;51.038;4.588;2022-08-07T00:57:32;17.50;58.10
26909;DHT22;14477;51.038;4.588;2022-08-07T00:59:58;17.40;58.10
26909;DHT22;14477;51.038;4.588;2022-08-07T01:02:25;17.40;58.20
26909;DHT22;14477;51.038;4.588;2022-08-07T01:04:51;17.30;58.30
26909;DHT22;14477;51.038;4.588;2022-08-07T01:07:21;17.30;58.40
26909;DHT22;14477;51.038;4.588;2022-08-07T01:09:47;17.20;58.80
26909;DHT22;14477;51.038;4.588;2022-08-07T01:12:14;17.20;58.70
26909;DHT22;14477;51.038;4.588;2022-08-07T01:14:40;17.20;59.00
26909;DHT22;14477;51.038;4.588;2022-08-07T01:17:07;17.10;59.00
26909;DHT22;14477;51.038;4.588;2022-08-07T01:19:33;17.00;59.10
26909;DHT22;14477;51.038;4.588;2022-08-07T01:21:59;17.00;59.10
26909;DHT22;14477;51.038;4.588;2022-08-07T01:24:26;16.90;59.20
26909;DHT22;14477;51.038;4.588;2022-08-07T01:26:53;16.90;59.40
26909;DHT22;14477;51.038;4.588;2022-08-07T01:29:22;16.90;59.50
26909;DHT22;14477;51.038;4.588;2022-08-07T01:31:49;16.80;59.70
26909;DHT22;14477;51.038;4.588;2022-08-07T01:34:15;16.80;59.60
26909;DHT22;14477;51.038;4.588;2022-08-07T01:36:48;16.70;59.60
26909;DHT22;14477;51.038;4.588;2022-08-07T01:39:15;16.70;59.80
26909;DHT22;14477;51.038;4.588;2022-08-07T01:41:41;16.70;59.90
26909;DHT22;14477;51.038;4.588;2022-08-07T01:44:10;16.70;60.00
26909;DHT22;14477;51.038;4.588;2022-08-07T01:46:38;16.60;60.10
26909;DHT22;14477;51.038;4.588;2022-08-07T01:49:04;16.60;60.30
26909;DHT22;14477;51.038;4.588;2022-08-07T01:51:31;16.50;60.70
26909;DHT22;14477;51.038;4.588;2022-08-07T01:54:00;16.50;60.30
26909;DHT22;14477;51.038;4.588;2022-08-07T01:56:35;16.40;60.40
26909;DHT22;14477;51.038;4.588;2022-08-07T01:59:16;16.40;60.90
26909;DHT22;14477;51.038;4.588;2022-08-07T02:01:47;16.30;61.10
26909;DHT22;14477;51.038;4.588;2022-08-07T02:04:27;16.30;60.80
26909;DHT22;14477;51.038;4.588;2022-08-07T02:06:56;16.20;61.30
26909;DHT22;14477;51.038;4.588;2022-08-07T02:09:25;16.20;60.80
26909;DHT22;14477;51.038;4.588;2022-08-07T02:11:54;16.10;61.10
26909;DHT22;14477;51.038;4.588;2022-08-07T02:14:21;16.10;61.20
26909;DHT22;14477;51.038;4.588;2022-08-07T02:16:49;16.00;61.30
26909;DHT22;14477;51.038;4.588;2022-08-07T02:19:17;16.00;61.30
26909;DHT22;14477;51.038;4.588;2022-08-07T02:21:44;15.90;61.30
26909;DHT22;14477;51.038;4.588;2022-08-07T02:24:11;16.00;61.60
26909;DHT22;14477;51.038;4.588;2022-08-07T02:26:38;15.90;61.70
26909;DHT22;14477;51.038;4.588;2022-08-07T02:29:06;15.90;61.80
26909;DHT22;14477;51.038;4.588;2022-08-07T02:31:34;15.80;61.90
26909;DHT22;14477;51.038;4.588;2022-08-07T02:34:02;15.80;62.00
26909;DHT22;14477;51.038;4.588;2022-08-07T02:36:28;15.80;62.10
26909;DHT22;14477;51.038;4.588;2022-08-07T02:38:56;15.80;62.10
26909;DHT22;14477;51.038;4.588;2022-08-07T02:41:23;15.70;62.30
26909;DHT22;14477;51.038;4.588;2022-08-07T02:43:50;15.70;62.30
26909;DHT22;14477;51.038;4.588;2022-08-07T02:46:20;15.60;62.30
26909;DHT22;14477;51.038;4.588;2022-08-07T02:48:47;15.60;62.50
26909;DHT22;14477;51.038;4.588;2022-08-07T02:51:17;15.60;62.40
26909;DHT22;14477;51.038;4.588;2022-08-07T02:53:45;15.60;62.70
26909;DHT22;14477;51.038;4.588;2022-08-07T02:56:19;15.50;62.50
26909;DHT22;14477;51.038;4.588;2022-08-07T02:58:47;15.50;62.50
26909;DHT22;14477;51.038;4.588;2022-08-07T03:01:14;15.50;62.70
26909;DHT22;14477;51.038;4.588;2022-08-07T03:03:41;15.40;62.80
26909;DHT22;14477;51.038;4.588;2022-08-07T03:06:08;15.40;62.90
26909;DHT22;14477;51.038;4.588;2022-08-07T03:08:35;15.40;62.90
26909;DHT22;14477;51.038;4.588;2022-08-07T03:11:02;15.30;63.10
26909;DHT22;14477;51.038;4.588;2022-08-07T03:13:29;15.30;63.20
26909;DHT22;14477;51.038;4.588;2022-08-07T03:15:55;15.30;63.30
26909;DHT22;14477;51.038;4.588;2022-08-07T03:18:21;15.20;63.40
26909;DHT22;14477;51.038;4.588;2022-08-07T03:20:47;15.20;63.40
26909;DHT22;14477;51.038;4.588;2022-08-07T03:23:13;15.20;63.40
26909;DHT22;14477;51.038;4.588;2022-08-07T03:25:40;15.20;63.60
26909;DHT22;14477;51.038;4.588;2022-08-07T03:28:09;15.20;63.60
26909;DHT22;14477;51.038;4.588;2022-08-07T03:30:36;15.10;63.90
26909;DHT22;14477;51.038;4.588;2022-08-07T03:33:03;15.10;63.70
26909;DHT22;14477;51.038;4.588;2022-08-07T03:35:30;15.00;63.90
26909;DHT22;14477;51.038;4.588;2022-08-07T03:37:58;15.10;64.00
26909;DHT22;14477;51.038;4.588;2022-08-07T03:40:26;15.00;64.30
26909;DHT22;14477;51.038;4.588;2022-08-07T03:42:53;15.00;64.30
26909;DHT22;14477;51.038;4.588;2022-08-07T03:45:21;15.00;64.20
26909;DHT22;14477;51.038;4.588;2022-08-07T03:47:48;15.00;65.20
26909;DHT22;14477;51.038;4.588;2022-08-07T03:50:14;15.00;64.70
26909;DHT22;14477;51.038;4.588;2022-08-07T03:52:43;15.00;64.70
26909;DHT22;14477;51.038;4.588;2022-08-07T03:55:10;15.00;64.90
26909;DHT22;14477;51.038;4.588;2022-08-07T03:57:36;14.90;64.80
26909;DHT22;14477;51.038;4.588;2022-08-07T04:00:03;14.90;64.80
26909;DHT22;14477;51.038;4.588;2022-08-07T04:02:29;14.90;64.80
26909;DHT22;14477;51.038;4.588;2022-08-07T04:04:55;14.90;64.90
26909;DHT22;14477;51.038;4.588;2022-08-07T04:07:21;14.90;64.80
26909;DHT22;14477;51.038;4.588;2022-08-07T04:09:47;14.90;64.90
26909;DHT22;14477;51.038;4.588;2022-08-07T04:12:14;14.90;65.00
26909;DHT22;14477;51.038;4.588;2022-08-07T04:14:40;14.80;65.10
26909;DHT22;14477;51.038;4.588;2022-08-07T04:17:06;14.80;65.20
26909;DHT22;14477;51.038;4.588;2022-08-07T04:19:32;14.70;65.20
26909;DHT22;14477;51.038;4.588;2022-08-07T04:21:58;14.70;65.30
26909;DHT22;14477;51.038;4.588;2022-08-07T04:24:25;14.70;65.50
26909;DHT22;14477;51.038;4.588;2022-08-07T04:26:51;14.60;65.60
26909;DHT22;14477;51.038;4.588;2022-08-07T04:29:17;14.70;65.70
26909;DHT22;14477;51.038;4.588;2022-08-07T04:31:43;14.60;65.70
26909;DHT22;14477;51.038;4.588;2022-08-07T04:34:09;14.60;65.80
26909;DHT22;14477;51.038;4.588;2022-08-07T04:36:35;14.60;65.90
26909;DHT22;14477;51.038;4.588;2022-08-07T04:39:03;14.60;65.90
26909;DHT22;14477;51.038;4.588;2022-08-07T04:41:30;14.60;66.10
26909;DHT22;14477;51.038;4.588;2022-08-07T04:43:56;14.70;66.20
26909;DHT22;14477;51.038;4.588;2022-08-07T04:52:20;14.60;67.20
26909;DHT22;14477;51.038;4.588;2022-08-07T04:57:57;14.70;67.90
26909;DHT22;14477;51.038;4.588;2022-08-07T05:03:21;14.70;68.10
26909;DHT22;14477;51.038;4.588;2022-08-07T05:05:58;14.70;67.60
26909;DHT22;14477;51.038;4.588;2022-08-07T05:11:02;14.80;68.00
26909;DHT22;14477;51.038;4.588;2022-08-07T05:13:31;14.90;68.00
26909;DHT22;14477;51.038;4.588;2022-08-07T05:16:03;14.90;67.70
26909;DHT22;14477;51.038;4.588;2022-08-07T05:18:35;15.00;68.00
26909;DHT22;14477;51.038;4.588;2022-08-07T05:21:05;15.00;68.30
26909;DHT22;14477;51.038;4.588;2022-08-07T05:23:46;15.10;68.20
26909;DHT22;14477;51.038;4.588;2022-08-07T05:26:19;15.10;69.30
26909;DHT22;14477;51.038;4.588;2022-08-07T05:28:48;15.20;68.80
26909;DHT22;14477;51.038;4.588;2022-08-07T05:31:17;15.20;68.70
26909;DHT22;14477;51.038;4.588;2022-08-07T05:33:45;15.30;68.80
26909;DHT22;14477;51.038;4.588;2022-08-07T05:36:11;15.30;68.80
26909;DHT22;14477;51.038;4.588;2022-08-07T05:38:38;15.40;69.00
26909;DHT22;14477;51.038;4.588;2022-08-07T05:41:06;15.50;69.20
26909;DHT22;14477;51.038;4.588;2022-08-07T05:43:32;15.50;69.20
26909;DHT22;14477;51.038;4.588;2022-08-07T05:45:59;15.60;69.30
26909;DHT22;14477;51.038;4.588;2022-08-07T05:48:27;15.60;69.40
26909;DHT22;14477;51.038;4.588;2022-08-07T05:50:58;15.70;69.60
26909;DHT22;14477;51.038;4.588;2022-08-07T05:53:26;15.80;69.70
26909;DHT22;14477;51.038;4.588;2022-08-07T05:55:53;15.80;69.70
26909;DHT22;14477;51.038;4.588;2022-08-07T05:58:21;15.90;69.90
26909;DHT22;14477;51.038;4.588;2022-08-07T06:00:49;16.00;70.00
26909;DHT22;14477;51.038;4.588;2022-08-07T06:03:18;16.00;70.00
26909;DHT22;14477;51.038;4.588;2022-08-07T06:05:46;16.10;70.00
26909;DHT22;14477;51.038;4.588;2022-08-07T06:08:12;16.20;70.10
26909;DHT22;14477;51.038;4.588;2022-08-07T06:10:38;16.30;70.20
26909;DHT22;14477;51.038;4.588;2022-08-07T06:13:05;16.30;70.10
26909;DHT22;14477;51.038;4.588;2022-08-07T06:15:34;16.40;70.20
26909;DHT22;14477;51.038;4.588;2022-08-07T06:18:01;16.40;70.60
26909;DHT22;14477;51.038;4.588;2022-08-07T06:20:28;16.50;70.40
26909;DHT22;14477;51.038;4.588;2022-08-07T06:22:56;16.60;70.30
26909;DHT22;14477;51.038;4.588;2022-08-07T06:25:22;16.70;70.60
26909;DHT22;14477;51.038;4.588;2022-08-07T06:27:48;16.80;70.40
26909;DHT22;14477;51.038;4.588;2022-08-07T06:30:14;16.90;70.30
26909;DHT22;14477;51.038;4.588;2022-08-07T06:32:39;16.90;70.30
26909;DHT22;14477;51.038;4.588;2022-08-07T06:35:05;17.10;70.50
26909;DHT22;14477;51.038;4.588;2022-08-07T06:37:31;17.10;70.50
26909;DHT22;14477;51.038;4.588;2022-08-07T06:39:57;17.20;70.60
26909;DHT22;14477;51.038;4.588;2022-08-07T06:42:26;17.30;70.60
26909;DHT22;14477;51.038;4.588;2022-08-07T06:44:55;17.40;70.70
26909;DHT22;14477;51.038;4.588;2022-08-07T06:47:22;17.50;70.70
26909;DHT22;14477;51.038;4.588;2022-08-07T06:49:48;17.60;70.60
26909;DHT22;14477;51.038;4.588;2022-08-07T06:52:15;17.70;70.60
26909;DHT22;14477;51.038;4.588;2022-08-07T06:54:42;17.80;70.70
26909;DHT22;14477;51.038;4.588;2022-08-07T06:57:09;17.90;70.60
26909;DHT22;14477;51.038;4.588;2022-08-07T06:59:39;18.00;70.60
26909;DHT22;14477;51.038;4.588;2022-08-07T07:02:12;18.10;70.60
26909;DHT22;14477;51.038;4.588;2022-08-07T07:04:41;18.20;70.50
26909;DHT22;14477;51.038;4.588;2022-08-07T07:07:07;18.30;70.40
26909;DHT22;14477;51.038;4.588;2022-08-07T07:09:33;18.50;70.40
26909;DHT22;14477;51.038;4.588;2022-08-07T07:17:38;18.80;69.80
26909;DHT22;14477;51.038;4.588;2022-08-07T07:20:14;18.90;69.90
26909;DHT22;14477;51.038;4.588;2022-08-07T07:22:42;19.10;69.80
26909;DHT22;14477;51.038;4.588;2022-08-07T07:25:10;19.10;69.60
26909;DHT22;14477;51.038;4.588;2022-08-07T07:27:44;19.20;69.30
26909;DHT22;14477;51.038;4.588;2022-08-07T07:30:13;19.40;69.50
26909;DHT22;14477;51.038;4.588;2022-08-07T07:32:40;19.50;69.10
26909;DHT22;14477;51.038;4.588;2022-08-07T07:35:09;19.50;69.10
26909;DHT22;14477;51.038;4.588;2022-08-07T07:37:36;19.70;69.30
26909;DHT22;14477;51.038;4.588;2022-08-07T07:40:15;19.80;69.10
26909;DHT22;14477;51.038;4.588;2022-08-07T07:42:47;19.90;68.70
26909;DHT22;14477;51.038;4.588;2022-08-07T07:45:15;20.00;68.50
26909;DHT22;14477;51.038;4.588;2022-08-07T07:47:43;20.10;68.60
26909;DHT22;14477;51.038;4.588;2022-08-07T07:50:11;20.30;68.40
26909;DHT22;14477;51.038;4.588;2022-08-07T07:52:38;20.40;68.30
26909;DHT22;14477;51.038;4.588;2022-08-07T07:55:07;20.50;68.30
26909;DHT22;14477;51.038;4.588;2022-08-07T07:57:34;20.70;68.40
26909;DHT22;14477;51.038;4.588;2022-08-07T08:00:01;20.80;69.00
26909;DHT22;14477;51.038;4.588;2022-08-07T08:02:28;21.10;69.60
26909;DHT22;14477;51.038;4.588;2022-08-07T08:04:55;21.40;69.50
26909;DHT22;14477;51.038;4.588;2022-08-07T08:07:23;21.70;69.20
26909;DHT22;14477;51.038;4.588;2022-08-07T08:09:51;21.90;68.70
26909;DHT22;14477;51.038;4.588;2022-08-07T08:12:17;22.20;68.20
26909;DHT22;14477;51.038;4.588;2022-08-07T08:14:44;22.40;68.30
26909;DHT22;14477;51.038;4.588;2022-08-07T08:17:11;22.60;68.50
26909;DHT22;14477;51.038;4.588;2022-08-07T08:19:39;22.90;68.60
26909;DHT22;14477;51.038;4.588;2022-08-07T08:22:09;23.20;68.70
26909;DHT22;14477;51.038;4.588;2022-08-07T08:24:55;23.50;68.70
26909;DHT22;14477;51.038;4.588;2022-08-07T08:27:41;23.90;68.90
26909;DHT22;14477;51.038;4.588;2022-08-07T08:30:10;24.50;69.60
26909;DHT22;14477;51.038;4.588;2022-08-07T08:32:43;24.90;69.70
26909;DHT22;14477;51.038;4.588;2022-08-07T08:35:14;25.40;68.30
26909;DHT22;14477;51.038;4.588;2022-08-07T08:37:44;26.00;69.10
26909;DHT22;14477;51.038;4.588;2022-08-07T08:40:22;26.60;68.70
26909;DHT22;14477;51.038;4.588;2022-08-07T08:51:18;29.00;61.60
26909;DHT22;14477;51.038;4.588;2022-08-07T08:54:03;29.60;62.40
26909;DHT22;14477;51.038;4.588;2022-08-07T08:56:37;30.10;60.50
26909;DHT22;14477;51.038;4.588;2022-08-07T08:59:16;30.60;60.10
26909;DHT22;14477;51.038;4.588;2022-08-07T09:07:56;31.80;59.00
26909;DHT22;14477;51.038;4.588;2022-08-07T09:10:28;32.20;54.90
26909;DHT22;14477;51.038;4.588;2022-08-07T09:13:19;32.50;57.90
26909;DHT22;14477;51.038;4.588;2022-08-07T09:27:50;33.80;49.80
26909;DHT22;14477;51.038;4.588;2022-08-07T09:30:16;34.10;50.00
26909;DHT22;14477;51.038;4.588;2022-08-07T09:43:54;35.40;46.60
26909;DHT22;14477;51.038;4.588;2022-08-07T09:55:07;36.00;44.40
26909;DHT22;14477;51.038;4.588;2022-08-07T10:09:12;36.60;43.10
26909;DHT22;14477;51.038;4.588;2022-08-07T10:23:24;37.00;40.10
26909;DHT22;14477;51.038;4.588;2022-08-07T10:28:57;37.10;39.10
26909;DHT22;14477;51.038;4.588;2022-08-07T10:36:54;37.30;40.30
26909;DHT22;14477;51.038;4.588;2022-08-07T10:44:47;37.50;37.60
26909;DHT22;14477;51.038;4.588;2022-08-07T10:51:21;37.70;36.60
26909;DHT22;14477;51.038;4.588;2022-08-07T10:54:14;37.80;36.70
26909;DHT22;14477;51.038;4.588;2022-08-07T10:57:10;37.90;37.30
26909;DHT22;14477;51.038;4.588;2022-08-07T11:00:09;38.00;37.90
26909;DHT22;14477;51.038;4.588;2022-08-07T11:03:18;38.10;36.00
26909;DHT22;14477;51.038;4.588;2022-08-07T11:09:37;38.50;35.40
26909;DHT22;14477;51.038;4.588;2022-08-07T11:12:35;38.70;36.50
26909;DHT22;14477;51.038;4.588;2022-08-07T11:15:24;38.80;34.90
26909;DHT22;14477;51.038;4.588;2022-08-07T11:18:19;38.90;36.70
26909;DHT22;14477;51.038;4.588;2022-08-07T11:21:21;38.90;34.70
26909;DHT22;14477;51.038;4.588;2022-08-07T11:24:23;39.00;34.40
26909;DHT22;14477;51.038;4.588;2022-08-07T11:27:20;39.10;35.30
26909;DHT22;14477;51.038;4.588;2022-08-07T11:30:13;39.20;34.70
26909;DHT22;14477;51.038;4.588;2022-08-07T11:39:34;39.60;33.90
26909;DHT22;14477;51.038;4.588;2022-08-07T11:48:44;40.00;32.50
26909;DHT22;14477;51.038;4.588;2022-08-07T12:00:39;40.10;32.70
26909;DHT22;14477;51.038;4.588;2022-08-07T12:03:52;40.10;30.90
26909;DHT22;14477;51.038;4.588;2022-08-07T12:07:54;40.00;30.10
26909;DHT22;14477;51.038;4.588;2022-08-07T12:10:14;40.00;30.00
26909;DHT22;14477;51.038;4.588;2022-08-07T12:13:06;39.90;31.20
26909;DHT22;14477;51.038;4.588;2022-08-07T12:16:26;39.90;31.00
26909;DHT22;14477;51.038;4.588;2022-08-07T12:22:26;40.00;30.40
26909;DHT22;14477;51.038;4.588;2022-08-07T12:25:27;40.10;30.70
26909;DHT22;14477;51.038;4.588;2022-08-07T12:31:56;40.10;28.60
26909;DHT22;14477;51.038;4.588;2022-08-07T12:34:44;40.00;29.30
26909;DHT22;14477;51.038;4.588;2022-08-07T12:37:32;39.90;30.10
26909;DHT22;14477;51.038;4.588;2022-08-07T12:40:21;39.90;29.80
26909;DHT22;14477;51.038;4.588;2022-08-07T12:43:09;39.80;29.50
26909;DHT22;14477;51.038;4.588;2022-08-07T12:46:19;39.70;29.40
26909;DHT22;14477;51.038;4.588;2022-08-07T12:49:38;39.70;28.80
26909;DHT22;14477;51.038;4.588;2022-08-07T12:52:46;39.70;29.00
26909;DHT22;14477;51.038;4.588;2022-08-07T12:55:41;39.70;28.90
26909;DHT22;14477;51.038;4.588;2022-08-07T12:58:32;39.70;28.80
26909;DHT22;14477;51.038;4.588;2022-08-07T13:04:28;39.50;28.80
26909;DHT22;14477;51.038;4.588;2022-08-07T13:14:06;39.70;28.30
26909;DHT22;14477;51.038;4.588;2022-08-07T13:17:14;39.70;29.60
26909;DHT22;14477;51.038;4.588;2022-08-07T13:20:19;39.70;28.00
26909;DHT22;14477;51.038;4.588;2022-08-07T13:23:23;39.90;28.80
26909;DHT22;14477;51.038;4.588;2022-08-07T13:27:15;39.90;28.60
26909;DHT22;14477;51.038;4.588;2022-08-07T13:29:35;39.90;27.90
26909;DHT22;14477;51.038;4.588;2022-08-07T13:35:36;39.80;28.10
26909;DHT22;14477;51.038;4.588;2022-08-07T13:38:47;39.90;28.50
26909;DHT22;14477;51.038;4.588;2022-08-07T13:41:41;39.90;28.00
26909;DHT22;14477;51.038;4.588;2022-08-07T13:44:32;39.90;27.90
26909;DHT22;14477;51.038;4.588;2022-08-07T13:47:19;39.90;28.20
26909;DHT22;14477;51.038;4.588;2022-08-07T13:50:08;39.80;27.80
26909;DHT22;14477;51.038;4.588;2022-08-07T13:52:55;39.60;27.50
26909;DHT22;14477;51.038;4.588;2022-08-07T13:55:41;39.30;27.70
26909;DHT22;14477;51.038;4.588;2022-08-07T13:58:31;39.00;27.60
26909;DHT22;14477;51.038;4.588;2022-08-07T14:02:08;38.70;27.80
26909;DHT22;14477;51.038;4.588;2022-08-07T14:05:00;38.30;27.50
26909;DHT22;14477;51.038;4.588;2022-08-07T14:07:48;38.10;27.20
26909;DHT22;14477;51.038;4.588;2022-08-07T14:10:35;37.80;27.90
26909;DHT22;14477;51.038;4.588;2022-08-07T14:13:26;37.60;28.20
26909;DHT22;14477;51.038;4.588;2022-08-07T14:16:14;37.50;27.80
26909;DHT22;14477;51.038;4.588;2022-08-07T14:19:02;37.40;28.20
26909;DHT22;14477;51.038;4.588;2022-08-07T14:21:50;37.20;28.10
26909;DHT22;14477;51.038;4.588;2022-08-07T14:24:41;37.10;28.20
26909;DHT22;14477;51.038;4.588;2022-08-07T14:27:37;36.90;27.80
26909;DHT22;14477;51.038;4.588;2022-08-07T14:30:24;36.70;27.70
26909;DHT22;14477;51.038;4.588;2022-08-07T14:33:11;36.70;28.40
26909;DHT22;14477;51.038;4.588;2022-08-07T14:35:58;36.60;28.50
26909;DHT22;14477;51.038;4.588;2022-08-07T14:38:43;36.60;28.40
26909;DHT22;14477;51.038;4.588;2022-08-07T14:41:33;36.60;28.50
26909;DHT22;14477;51.038;4.588;2022-08-07T14:44:24;36.60;28.40
26909;DHT22;14477;51.038;4.588;2022-08-07T14:47:12;36.60;28.10
26909;DHT22;14477;51.038;4.588;2022-08-07T14:50:05;36.60;27.90
26909;DHT22;14477;51.038;4.588;2022-08-07T14:52:32;36.40;27.90
26909;DHT22;14477;51.038;4.588;2022-08-07T14:55:19;36.30;28.10
26909;DHT22;14477;51.038;4.588;2022-08-07T14:58:05;36.30;28.30
26909;DHT22;14477;51.038;4.588;2022-08-07T15:00:53;36.20;28.20
26909;DHT22;14477;51.038;4.588;2022-08-07T15:03:39;36.10;28.20
26909;DHT22;14477;51.038;4.588;2022-08-07T15:06:29;36.00;28.20
26909;DHT22;14477;51.038;4.588;2022-08-07T15:09:02;35.80;28.10
26909;DHT22;14477;51.038;4.588;2022-08-07T15:11:30;35.70;27.90
26909;DHT22;14477;51.038;4.588;2022-08-07T15:14:05;35.60;28.10
26909;DHT22;14477;51.038;4.588;2022-08-07T15:17:10;35.40;27.60
26909;DHT22;14477;51.038;4.588;2022-08-07T15:19:38;35.20;28.00
26909;DHT22;14477;51.038;4.588;2022-08-07T15:22:15;34.90;28.00
26909;DHT22;14477;51.038;4.588;2022-08-07T15:24:46;34.70;28.00
26909;DHT22;14477;51.038;4.588;2022-08-07T15:29:45;34.20;27.90
26909;DHT22;14477;51.038;4.588;2022-08-07T15:32:12;34.00;28.10
26909;DHT22;14477;51.038;4.588;2022-08-07T15:34:58;33.80;28.20
26909;DHT22;14477;51.038;4.588;2022-08-07T15:37:32;33.60;28.00
26909;DHT22;14477;51.038;4.588;2022-08-07T15:40:02;33.30;28.00
26909;DHT22;14477;51.038;4.588;2022-08-07T15:45:08;33.00;28.70
26909;DHT22;14477;51.038;4.588;2022-08-07T15:47:42;32.90;28.60
26909;DHT22;14477;51.038;4.588;2022-08-07T15:50:11;32.80;28.60
26909;DHT22;14477;51.038;4.588;2022-08-07T15:52:43;32.60;28.70
26909;DHT22;14477;51.038;4.588;2022-08-07T15:55:13;32.60;28.90
26909;DHT22;14477;51.038;4.588;2022-08-07T15:57:45;32.50;29.00
26909;DHT22;14477;51.038;4.588;2022-08-07T16:00:11;32.50;29.20
26909;DHT22;14477;51.038;4.588;2022-08-07T16:02:42;32.50;29.20
26909;DHT22;14477;51.038;4.588;2022-08-07T16:05:18;32.50;29.00
26909;DHT22;14477;51.038;4.588;2022-08-07T16:07:53;32.50;29.10
26909;DHT22;14477;51.038;4.588;2022-08-07T16:10:25;32.30;29.00
26909;DHT22;14477;51.038;4.588;2022-08-07T16:13:03;32.30;29.00
26909;DHT22;14477;51.038;4.588;2022-08-07T16:24:02;32.00;29.10
26909;DHT22;14477;51.038;4.588;2022-08-07T16:34:49;31.80;29.20
26909;DHT22;14477;51.038;4.588;2022-08-07T16:45:33;31.60;29.60
26909;DHT22;14477;51.038;4.588;2022-08-07T16:51:02;31.40;29.30
26909;DHT22;14477;51.038;4.588;2022-08-07T16:56:17;31.10;29.30
26909;DHT22;14477;51.038;4.588;2022-08-07T17:07:22;30.90;29.50
26909;DHT22;14477;51.038;4.588;2022-08-07T17:10:06;30.80;29.50
26909;DHT22;14477;51.038;4.588;2022-08-07T17:13:02;30.80;29.60
26909;DHT22;14477;51.038;4.588;2022-08-07T17:20:44;30.60;29.80
26909;DHT22;14477;51.038;4.588;2022-08-07T17:26:24;30.50;29.90
26909;DHT22;14477;51.038;4.588;2022-08-07T17:29:08;30.40;29.90
26909;DHT22;14477;51.038;4.588;2022-08-07T17:34:34;30.20;30.00
26909;DHT22;14477;51.038;4.588;2022-08-07T17:37:26;30.20;30.30
26909;DHT22;14477;51.038;4.588;2022-08-07T17:42:48;30.00;31.30
26909;DHT22;14477;51.038;4.588;2022-08-07T17:45:22;29.90;31.90
26909;DHT22;14477;51.038;4.588;2022-08-07T17:48:18;29.80;31.80
26909;DHT22;14477;51.038;4.588;2022-08-07T17:53:47;29.50;32.40
26909;DHT22;14477;51.038;4.588;2022-08-07T17:56:35;29.50;32.40
26909;DHT22;14477;51.038;4.588;2022-08-07T17:59:04;29.40;33.10
26909;DHT22;14477;51.038;4.588;2022-08-07T18:01:44;29.30;32.70
26909;DHT22;14477;51.038;4.588;2022-08-07T18:07:26;29.10;33.70
26909;DHT22;14477;51.038;4.588;2022-08-07T18:09:59;29.00;33.90
26909;DHT22;14477;51.038;4.588;2022-08-07T18:12:39;28.80;33.60
26909;DHT22;14477;51.038;4.588;2022-08-07T18:15:20;28.70;33.50
26909;DHT22;14477;51.038;4.588;2022-08-07T18:17:55;28.60;34.30
26909;DHT22;14477;51.038;4.588;2022-08-07T18:20:31;28.50;34.40
26909;DHT22;14477;51.038;4.588;2022-08-07T18:23:04;28.30;34.40
26909;DHT22;14477;51.038;4.588;2022-08-07T18:25:33;28.20;34.90
26909;DHT22;14477;51.038;4.588;2022-08-07T18:31:35;27.90;34.90
26909;DHT22;14477;51.038;4.588;2022-08-07T18:34:36;27.80;35.40
26909;DHT22;14477;51.038;4.588;2022-08-07T18:40:19;27.70;36.00
26909;DHT22;14477;51.038;4.588;2022-08-07T18:43:11;27.60;35.50
26909;DHT22;14477;51.038;4.588;2022-08-07T18:45:45;27.50;36.40
26909;DHT22;14477;51.038;4.588;2022-08-07T18:55:42;27.20;36.00
26909;DHT22;14477;51.038;4.588;2022-08-07T19:03:24;26.90;36.20
26909;DHT22;14477;51.038;4.588;2022-08-07T19:06:08;26.80;37.00
26909;DHT22;14477;51.038;4.588;2022-08-07T19:11:29;26.50;37.40
26909;DHT22;14477;51.038;4.588;2022-08-07T19:14:41;26.40;37.20
26909;DHT22;14477;51.038;4.588;2022-08-07T19:17:14;26.30;37.60
26909;DHT22;14477;51.038;4.588;2022-08-07T19:20:06;26.20;37.40
26909;DHT22;14477;51.038;4.588;2022-08-07T19:22:45;26.10;37.80
26909;DHT22;14477;51.038;4.588;2022-08-07T19:25:16;26.00;37.20
26909;DHT22;14477;51.038;4.588;2022-08-07T19:27:43;25.90;37.50
26909;DHT22;14477;51.038;4.588;2022-08-07T19:30:11;25.80;37.60
26909;DHT22;14477;51.038;4.588;2022-08-07T19:32:41;25.70;37.80
26909;DHT22;14477;51.038;4.588;2022-08-07T19:35:16;25.70;38.10
26909;DHT22;14477;51.038;4.588;2022-08-07T19:37:46;25.60;38.30
26909;DHT22;14477;51.038;4.588;2022-08-07T19:40:15;25.50;38.10
26909;DHT22;14477;51.038;4.588;2022-08-07T19:42:44;25.40;38.10
26909;DHT22;14477;51.038;4.588;2022-08-07T19:49:04;25.30;39.40
26909;DHT22;14477;51.038;4.588;2022-08-07T19:51:33;25.20;39.10
26909;DHT22;14477;51.038;4.588;2022-08-07T19:54:00;25.10;38.60
26909;DHT22;14477;51.038;4.588;2022-08-07T19:56:28;25.00;38.60
26909;DHT22;14477;51.038;4.588;2022-08-07T19:58:56;24.90;38.90
26909;DHT22;14477;51.038;4.588;2022-08-07T20:01:21;24.90;39.10
26909;DHT22;14477;51.038;4.588;2022-08-07T20:03:48;24.80;39.20
26909;DHT22;14477;51.038;4.588;2022-08-07T20:06:16;24.70;39.40
26909;DHT22;14477;51.038;4.588;2022-08-07T20:08:47;24.70;39.60
26909;DHT22;14477;51.038;4.588;2022-08-07T20:11:15;24.60;39.90
26909;DHT22;14477;51.038;4.588;2022-08-07T20:13:55;24.50;40.50
26909;DHT22;14477;51.038;4.588;2022-08-07T20:16:27;24.40;40.80
26909;DHT22;14477;51.038;4.588;2022-08-07T20:18:57;24.40;40.40
26909;DHT22;14477;51.038;4.588;2022-08-07T20:21:24;24.30;40.20